Time,TemperatureF,DewpointF,PressureIn,WindDirection,WindDirectionDegrees,WindSpeedMPH,WindSpeedGustMPH,Humidity,HourlyPrecipIn,Conditions,Clouds,dailyrainin,SolarRadiationWatts/m^2,SoftwareType,DateUTC
2013-02-03 00:00:00,24.2,17.5,30.90,NNE,16,0.0,2.0,75,0.00,CLR,SKC,0.00,0.0,WeatherDisplay:10.37,2013-02-03 07:00:00,
2013-02-03 00:15:00,23.4,17.3,30.90,NNE,16,0.0,1.0,77,0.00,CLR,SKC,0.00,0.0,WeatherDisplay:10.37,2013-02-03 07:15:00,
2013-02-03 00:30:00,24.3,17.5,30.90,NNE,16,0.0,1.0,75,0.00,CLR,SKC,0.00,0.0,WeatherDisplay:10.37,2013-02-03 07:30:00,
2013-02-03 00:45:00,24.0,17.0,30.90,NNE,16,0.0,2.0,74,0.00,CLR,SKC,0.00,0.0,WeatherDisplay:10.37,2013-02-03 07:45:00,
2013-02-03 01:00:00,23.2,16.8,30.88,NNE,16,0.0,2.0,76,0.00,CLR,SKC,0.00,0.0,WeatherDisplay:10.37,2013-02-03 08:00:00,
2013-02-03 01:15:00,23.6,17.2,30.88,NNE,16,0.0,1.0,76,0.00,CLR,SKC,0.00,0.0,WeatherDisplay:10.37,2013-02-03 08:15:00,
2013-02-03 01:30:00,23.6,17.1,30.87,NNE,16,0.0,1.0,76,0.00,CLR,SKC,0.00,0.0,WeatherDisplay:10.37,2013-02-03 08:30:00,
2013-02-03 01:45:00,23.1,17.0,30.86,NNE,16,0.0,1.0,77,0.00,CLR,SKC,0.00,0.0,WeatherDisplay:10.37,2013-02-03 08:45:00,
2013-02-03 02:00:00,23.8,17.3,30.86,NNE,16,0.0,1.0,76,0.00,CLR,SKC,0.00,0.0,WeatherDisplay:10.37,2013-02-03 09:00:00,
2013-02-03 02:15:00,23.3,17.1,30.86,NNE,16,0.0,1.0,77,0.00,CLR,SKC,0.00,0.0,WeatherDisplay:10.37,2013-02-03 09:15:00,
2013-02-03 02:30:00,23.3,17.4,30.86,NNE,16,0.0,1.0,78,0.00,CLR,SKC,0.00,0.0,WeatherDisplay:10.37,2013-02-03 09:30:00,
2013-02-03 02:45:00,24.2,17.7,30.85,NNE,16,1.0,2.0,76,0.00,CLR,SKC,0.00,0.0,WeatherDisplay:10.37,2013-02-03 09:45:00,
2013-02-03 03:00:00,23.6,17.2,30.85,NNE,16,0.0,2.0,76,0.00,CLR,SKC,0.00,0.0,WeatherDisplay:10.37,2013-02-03 10:00:00,
2013-02-03 03:15:00,23.2,16.7,30.84,NNE,16,0.0,1.0,76,0.00,CLR,SKC,0.00,0.0,WeatherDisplay:10.37,2013-02-03 10:15:00,
2013-02-03 03:30:00,22.5,16.7,30.84,NNE,16,0.0,0.0,78,0.00,CLR,SKC,0.00,0.0,WeatherDisplay:10.37,2013-02-03 10:30:00,
2013-02-03 03:45:00,22.5,17.5,30.83,NNE,16,0.0,0.0,81,0.00,CLR,SKC,0.00,0.0,WeatherDisplay:10.37,2013-02-03 10:45:00,
2013-02-03 04:00:00,23.3,17.8,30.82,NNE,16,0.0,1.0,79,0.00,CLR,SKC,0.00,0.0,WeatherDisplay:10.37,2013-02-03 11:00:00,
2013-02-03 04:15:00,23.2,17.9,30.81,NNE,16,0.0,0.0,80,0.00,CLR,SKC,0.00,0.0,WeatherDisplay:10.37,2013-02-03 11:15:00,
2013-02-03 04:30:00,23.5,18.2,30.81,NNE,16,0.0,1.0,80,0.00,CLR,SKC,0.00,0.0,WeatherDisplay:10.37,2013-02-03 11:30:00,
2013-02-03 04:45:00,23.7,18.5,30.81,NNE,16,0.0,1.0,80,0.00,CLR,SKC,0.00,0.0,WeatherDisplay:10.37,2013-02-03 11:45:00,
2013-02-03 05:00:00,24.8,19.0,30.80,NNE,16,0.0,1.0,78,0.00,CLR,SKC,0.00,0.0,WeatherDisplay:10.37,2013-02-03 12:00:00,
2013-02-03 05:15:00,25.1,18.9,30.79,NNE,16,0.0,2.0,77,0.00,CLR,SKC,0.00,0.0,WeatherDisplay:10.37,2013-02-03 12:15:00,
2013-02-03 05:30:00,25.3,19.1,30.79,NNE,16,0.0,1.0,77,0.00,CLR,SKC,0.00,0.0,WeatherDisplay:10.37,2013-02-03 12:30:00,
2013-02-03 05:45:00,25.4,18.9,30.78,NNE,16,0.0,1.0,76,0.00,CLR,SKC,0.00,0.0,WeatherDisplay:10.37,2013-02-03 12:45:00,
2013-02-03 06:00:00,24.8,18.9,30.78,NNE,16,0.0,2.0,78,0.00,CLR,SKC,0.00,0.0,WeatherDisplay:10.37,2013-02-03 13:00:00,
2013-02-03 06:15:00,25.5,19.3,30.78,NNE,16,0.0,1.0,77,0.00,CLR,SKC,0.00,0.0,WeatherDisplay:10.37,2013-02-03 13:15:00,
2013-02-03 06:30:00,25.8,19.6,30.78,NNE,16,1.0,2.0,77,0.00,CLR,SKC,0.00,0.0,WeatherDisplay:10.37,2013-02-03 13:30:00,
2013-02-03 06:45:00,25.7,19.5,30.77,NNE,16,0.0,2.0,77,0.00,CLR,SKC,0.00,0.0,WeatherDisplay:10.37,2013-02-03 13:45:00,
2013-02-03 07:00:00,25.8,19.6,30.78,NNE,16,0.0,1.0,77,0.00,CLR,SKC,0.00,0.0,WeatherDisplay:10.37,2013-02-03 14:00:00,
2013-02-03 07:15:00,25.5,19.6,30.78,NNE,16,0.0,1.0,78,0.00,OVC,SKC,0.00,0.0,WeatherDisplay:10.37,2013-02-03 14:15:00,
2013-02-03 07:30:00,24.8,19.2,30.77,NNE,16,0.0,3.0,79,0.00,OVC,SKC,0.00,0.0,WeatherDisplay:10.37,2013-02-03 14:30:00,
2013-02-03 07:45:00,24.7,19.1,30.77,NNE,16,0.0,0.0,79,0.00,CLR,SKC,0.00,16.0,WeatherDisplay:10.37,2013-02-03 14:45:00,
2013-02-03 08:00:00,24.7,19.1,30.77,NNE,16,0.0,0.0,79,0.00,SCT,SKC,0.00,28.0,WeatherDisplay:10.37,2013-02-03 15:00:00,
2013-02-03 08:15:00,25.1,19.8,30.77,NNE,16,0.0,1.0,80,0.00,SCT,SKC,0.00,56.0,WeatherDisplay:10.37,2013-02-03 15:15:00,
2013-02-03 08:30:00,25.7,20.1,30.77,NNE,16,0.0,0.0,79,0.00,CLR,SKC,0.00,104.0,WeatherDisplay:10.37,2013-02-03 15:30:00,
2013-02-03 08:45:00,26.9,20.4,30.76,NNE,16,0.0,0.0,76,0.00,SCT,SKC,0.00,104.0,WeatherDisplay:10.37,2013-02-03 15:45:00,
2013-02-03 09:00:00,27.8,20.3,30.76,NNE,16,0.0,1.0,73,0.00,FEW,SKC,0.00,137.0,WeatherDisplay:10.37,2013-02-03 16:00:00,
2013-02-03 09:15:00,29.4,20.8,30.75,NNE,16,0.0,2.0,70,0.00,FEW,SKC,0.00,197.0,WeatherDisplay:10.37,2013-02-03 16:15:00,
2013-02-03 09:30:00,29.9,20.2,30.76,NNE,16,1.0,5.0,67,0.00,FEW,SKC,0.00,214.0,WeatherDisplay:10.37,2013-02-03 16:30:00,
2013-02-03 09:45:00,30.7,21.1,30.75,NNE,16,0.0,3.0,67,0.00,CLR,SKC,0.00,330.0,WeatherDisplay:10.37,2013-02-03 16:45:00,
2013-02-03 10:00:00,31.9,20.7,30.75,NNE,16,0.0,3.0,63,0.00,CLR,SKC,0.00,255.0,WeatherDisplay:10.37,2013-02-03 17:00:00,
2013-02-03 10:15:00,34.5,20.0,30.75,NNE,16,0.0,1.0,55,0.00,FEW,SKC,0.00,283.0,WeatherDisplay:10.37,2013-02-03 17:15:00,
2013-02-03 10:30:00,32.9,19.7,30.75,NNE,16,0.0,2.0,58,0.00,FEW,SKC,0.00,267.0,WeatherDisplay:10.37,2013-02-03 17:30:00,
2013-02-03 10:45:00,32.5,20.5,30.75,NNE,16,0.0,1.0,61,0.00,SCT,SKC,0.00,306.0,WeatherDisplay:10.37,2013-02-03 17:45:00,
2013-02-03 11:00:00,32.9,20.5,30.74,NNE,16,0.0,2.0,60,0.00,SCT,SKC,0.00,304.0,WeatherDisplay:10.37,2013-02-03 18:00:00,
2013-02-03 11:15:00,32.3,20.7,30.74,NNE,16,0.0,1.0,62,0.00,FEW,SKC,0.00,357.0,WeatherDisplay:10.37,2013-02-03 18:15:00,
2013-02-03 11:30:00,32.5,20.1,30.74,NNE,16,0.0,2.0,60,0.00,FEW,SKC,0.00,399.0,WeatherDisplay:10.37,2013-02-03 18:30:00,
2013-02-03 11:45:00,33.3,20.5,30.73,NNE,16,0.0,2.0,59,0.00,FEW,SKC,0.00,404.0,WeatherDisplay:10.37,2013-02-03 18:45:00,
2013-02-03 12:00:00,33.5,20.7,30.73,NNE,16,0.0,3.0,59,0.00,FEW,SKC,0.00,392.0,WeatherDisplay:10.37,2013-02-03 19:00:00,
2013-02-03 12:15:00,34.5,21.7,30.73,NNE,16,0.0,2.0,59,0.00,SCT,SKC,0.00,341.0,WeatherDisplay:10.37,2013-02-03 19:15:00,
2013-02-03 12:30:00,33.0,22.1,30.72,NNE,16,0.0,3.0,64,0.00,SCT,SKC,0.00,415.0,WeatherDisplay:10.37,2013-02-03 19:30:00,
2013-02-03 12:45:00,32.2,23.5,30.71,NNE,16,1.0,4.0,70,0.00,CLR,SKC,0.00,566.0,WeatherDisplay:10.37,2013-02-03 19:45:00,
2013-02-03 13:00:00,33.0,22.8,30.70,North,9,0.0,3.0,66,0.00,CLR,SKC,0.00,682.0,WeatherDisplay:10.37,2013-02-03 20:00:00,
2013-02-03 13:15:00,34.4,23.5,30.70,North,9,0.0,3.0,64,0.00,CLR,SKC,0.00,650.0,WeatherDisplay:10.37,2013-02-03 20:15:00,
2013-02-03 13:30:00,35.6,22.2,30.69,North,9,0.0,2.0,58,0.00,CLR,SKC,0.00,522.0,WeatherDisplay:10.37,2013-02-03 20:30:00,
2013-02-03 13:45:00,34.4,22.7,30.69,North,9,2.0,4.0,62,0.00,CLR,SKC,0.00,531.0,WeatherDisplay:10.37,2013-02-03 20:45:00,
2013-02-03 14:00:00,34.6,24.0,30.69,North,9,1.0,4.0,65,0.00,CLR,SKC,0.00,468.0,WeatherDisplay:10.37,2013-02-03 21:00:00,
2013-02-03 14:15:00,36.3,23.3,30.68,North,11,1.0,3.0,59,0.00,CLR,SKC,0.00,427.0,WeatherDisplay:10.37,2013-02-03 21:15:00,
2013-02-03 14:30:00,37.6,23.7,30.67,North,8,3.0,4.0,57,0.00,CLR,SKC,0.00,406.0,WeatherDisplay:10.37,2013-02-03 21:30:00,
2013-02-03 14:45:00,35.6,22.3,30.67,North,5,1.0,4.0,58,0.00,CLR,SKC,0.00,313.0,WeatherDisplay:10.37,2013-02-03 21:45:00,
2013-02-03 15:00:00,35.8,20.7,30.67,North,5,1.0,3.0,54,0.00,CLR,SKC,0.00,469.0,WeatherDisplay:10.37,2013-02-03 22:00:00,
2013-02-03 15:15:00,36.7,19.8,30.67,North,9,1.0,3.0,50,0.00,CLR,SKC,0.00,316.0,WeatherDisplay:10.37,2013-02-03 22:15:00,
2013-02-03 15:30:00,37.4,21.4,30.67,North,10,0.0,2.0,52,0.00,CLR,SKC,0.00,380.0,WeatherDisplay:10.37,2013-02-03 22:30:00,
2013-02-03 15:45:00,39.7,21.1,30.66,North,10,1.0,4.0,47,0.00,CLR,SKC,0.00,336.0,WeatherDisplay:10.37,2013-02-03 22:45:00,
2013-02-03 16:00:00,36.3,22.5,30.66,NNW,342,2.0,5.0,57,0.00,CLR,SKC,0.00,285.0,WeatherDisplay:10.37,2013-02-03 23:00:00,
2013-02-03 16:15:00,36.0,22.7,30.66,NW,324,1.0,3.0,58,0.00,CLR,SKC,0.00,229.0,WeatherDisplay:10.37,2013-02-03 23:15:00,
2013-02-03 16:30:00,36.4,21.3,30.66,NW,324,0.0,2.0,54,0.00,CLR,SKC,0.00,158.0,WeatherDisplay:10.37,2013-02-03 23:30:00,
2013-02-03 16:45:00,35.8,21.6,30.65,NW,325,1.0,2.0,56,0.00,CLR,SKC,0.00,105.0,WeatherDisplay:10.37,2013-02-03 23:45:00,
2013-02-03 17:00:00,36.2,20.2,30.65,NW,325,0.0,2.0,52,0.00,SCT,SKC,0.00,54.0,WeatherDisplay:10.37,2013-02-04 00:00:00,
2013-02-03 17:15:00,37.0,20.5,30.65,NW,325,0.0,1.0,51,0.00,BKN,SKC,0.00,21.0,WeatherDisplay:10.37,2013-02-04 00:15:00,
2013-02-03 17:30:00,35.7,21.1,30.65,NW,325,0.0,1.0,55,0.00,SCT,SKC,0.00,12.0,WeatherDisplay:10.37,2013-02-04 00:30:00,
2013-02-03 17:45:00,34.5,21.2,30.64,NW,325,0.0,1.0,58,0.00,OVC,SKC,0.00,7.0,WeatherDisplay:10.37,2013-02-04 00:45:00,
2013-02-03 18:00:00,31.7,20.5,30.65,NNW,342,1.0,3.0,63,0.00,CLR,SKC,0.00,0.0,WeatherDisplay:10.37,2013-02-04 01:00:00,
2013-02-03 18:15:00,30.3,20.3,30.65,East,98,1.0,6.0,66,0.00,CLR,SKC,0.00,0.0,WeatherDisplay:10.37,2013-02-04 01:15:00,
2013-02-03 18:30:00,29.4,20.1,30.66,East,98,2.0,3.0,68,0.00,CLR,SKC,0.00,0.0,WeatherDisplay:10.37,2013-02-04 01:30:00,
2013-02-03 18:45:00,28.2,20.0,30.67,East,98,1.0,3.0,71,0.00,CLR,SKC,0.00,0.0,WeatherDisplay:10.37,2013-02-04 01:45:00,
2013-02-03 19:00:00,28.7,19.8,30.67,East,98,2.0,5.0,69,0.00,CLR,SKC,0.00,0.0,WeatherDisplay:10.37,2013-02-04 02:00:00,
2013-02-03 19:15:00,27.9,19.4,30.66,East,98,0.0,5.0,70,0.00,CLR,SKC,0.00,0.0,WeatherDisplay:10.37,2013-02-04 02:15:00,
2013-02-03 19:30:00,26.0,18.5,30.67,East,98,0.0,1.0,73,0.00,CLR,SKC,0.00,0.0,WeatherDisplay:10.37,2013-02-04 02:30:00,
2013-02-03 19:45:00,26.2,18.4,30.67,East,98,0.0,2.0,72,0.00,CLR,SKC,0.00,0.0,WeatherDisplay:10.37,2013-02-04 02:45:00,
2013-02-03 20:00:00,26.6,18.5,30.68,East,98,0.0,1.0,71,0.00,CLR,SKC,0.00,0.0,WeatherDisplay:10.37,2013-02-04 03:00:00,
2013-02-03 20:15:00,26.4,17.9,30.68,East,98,1.0,2.0,70,0.00,CLR,SKC,0.00,0.0,WeatherDisplay:10.37,2013-02-04 03:15:00,
2013-02-03 20:30:00,26.6,18.1,30.69,East,98,0.0,3.0,70,0.00,CLR,SKC,0.00,0.0,WeatherDisplay:10.37,2013-02-04 03:30:00,
2013-02-03 20:45:00,24.1,16.1,30.70,East,98,0.0,3.0,71,0.00,CLR,SKC,0.00,0.0,WeatherDisplay:10.37,2013-02-04 03:45:00,
2013-02-03 21:00:00,23.4,15.7,30.69,East,98,0.0,2.0,72,0.00,CLR,SKC,0.00,0.0,WeatherDisplay:10.37,2013-02-04 04:00:00,
2013-02-03 21:15:00,24.2,16.5,30.68,East,98,0.0,3.0,72,0.00,CLR,SKC,0.00,0.0,WeatherDisplay:10.37,2013-02-04 04:15:00,
2013-02-03 21:30:00,24.0,16.0,30.68,East,98,0.0,1.0,71,0.00,CLR,SKC,0.00,0.0,WeatherDisplay:10.37,2013-02-04 04:30:00,
2013-02-03 21:45:00,24.8,17.0,30.69,East,97,0.0,5.0,72,0.00,CLR,SKC,0.00,0.0,WeatherDisplay:10.37,2013-02-04 04:45:00,
2013-02-03 22:15:00,24.4,17.3,30.69,East,98,0.0,3.0,74,0.00,CLR,SKC,0.00,0.0,WeatherDisplay:10.37,2013-02-04 05:15:00,
2013-02-03 22:30:00,22.9,15.5,30.70,East,98,0.0,1.0,73,0.00,CLR,SKC,0.00,0.0,WeatherDisplay:10.37,2013-02-04 05:30:00,
2013-02-03 22:45:00,22.9,15.5,30.70,East,98,0.0,2.0,73,0.00,CLR,SKC,0.00,0.0,WeatherDisplay:10.37,2013-02-04 05:45:00,
2013-02-03 23:00:00,22.6,14.9,30.72,East,98,1.0,2.0,72,0.00,CLR,SKC,0.00,0.0,WeatherDisplay:10.37,2013-02-04 06:00:00,
2013-02-03 23:15:00,21.8,14.5,30.72,East,98,0.0,2.0,73,0.00,CLR,SKC,0.00,0.0,WeatherDisplay:10.37,2013-02-04 06:15:00,
2013-02-03 23:30:00,21.8,15.1,30.72,East,98,0.0,2.0,75,0.00,CLR,SKC,0.00,0.0,WeatherDisplay:10.37,2013-02-04 06:30:00,
2013-02-03 23:45:00,21.9,14.9,30.72,East,98,2.0,3.0,74,0.00,CLR,SKC,0.00,0.0,WeatherDisplay:10.37,2013-02-04 06:45:00,